Time;durP1;ratioP1;P1;durP2;ratioP2;P2;SDS_P1;SDS_P2;PMS_P1;PMS_P2;Temp;Humidity;BMP_temperature;BMP_pressure;BME280_temperature;BME280_humidity;BME280_pressure;Samples;Min_cycle;Max_cycle;Signal;HPM_P1;HPM_P2
2022/02/24 00:02:24;;;;;;;7.33;3.65;;;;;;;5.39;64.31;100824.97;1782244;80;21440;-54
2022/02/24 00:04:51;;;;;;;9.63;4.40;;;;;;;5.37;64.55;100835.95;1778901;79;21041;-54
2022/02/24 00:07:18;;;;;;;8.60;3.85;;;;;;;5.35;64.53;100831.28;1782949;79;21062;-53
2022/02/24 00:09:45;;;;;;;10.72;4.60;;;;;;;5.34;64.52;100829.58;1810505;78;21058;-55
2022/02/24 00:12:12;;;;;;;7.62;3.75;;;;;;;5.33;64.55;100833.56;1799039;78;21442;-54
2022/02/24 00:14:39;;;;;;;7.28;3.70;;;;;;;5.34;64.47;100837.88;1818372;78;20998;-54
2022/02/24 00:17:07;;;;;;;9.68;4.35;;;;;;;5.42;64.51;100840.11;1817783;77;20983;-55
2022/02/24 00:19:34;;;;;;;8.80;3.95;;;;;;;5.49;64.30;100837.56;1817550;77;21125;-54
2022/02/24 00:22:00;;;;;;;10.05;4.35;;;;;;;5.54;64.23;100842.08;1788222;78;21073;-54
2022/02/24 00:24:27;;;;;;;9.33;4.25;;;;;;;5.55;64.28;100835.95;1800151;78;21142;-55
2022/02/24 00:26:53;;;;;;;13.40;5.30;;;;;;;5.55;64.15;100834.17;1803307;77;21038;-54
2022/02/24 00:29:20;;;;;;;9.60;4.42;;;;;;;5.54;64.11;100833.78;1805526;78;21034;-54
2022/02/24 00:31:46;;;;;;;9.23;5.15;;;;;;;5.50;64.07;100835.34;1807505;78;21573;-54
2022/02/24 00:34:15;;;;;;;10.15;5.00;;;;;;;5.48;64.32;100835.42;1801020;77;21080;-54
2022/02/24 00:36:42;;;;;;;9.55;4.28;;;;;;;5.48;64.47;100831.50;1774586;78;22190;-54
2022/02/24 00:39:09;;;;;;;9.73;4.60;;;;;;;5.46;64.49;100832.02;1779557;79;21038;-54
2022/02/24 00:41:36;;;;;;;12.35;5.30;;;;;;;5.45;64.48;100833.44;1782625;78;21161;-54
2022/02/24 00:44:04;;;;;;;7.90;4.45;;;;;;;5.44;64.51;100836.48;1777171;78;20991;-54
2022/02/24 00:46:30;;;;;;;9.48;5.00;;;;;;;5.44;64.51;100838.26;1800983;77;21129;-54
2022/02/24 00:48:57;;;;;;;10.03;4.05;;;;;;;5.49;64.40;100837.09;1750917;79;21050;-54
2022/02/24 00:51:23;;;;;;;8.05;3.98;;;;;;;5.52;64.22;100834.80;1784404;79;21693;-54
2022/02/24 00:53:49;;;;;;;8.95;4.10;;;;;;;5.53;64.20;100833.86;1751010;80;21065;-54
2022/02/24 00:56:16;;;;;;;8.48;4.25;;;;;;;5.52;64.21;100840.02;1754065;80;21061;-54
2022/02/24 00:58:42;;;;;;;9.25;4.78;;;;;;;5.48;64.19;100844.99;1784167;79;21122;-54
2022/02/24 01:01:10;;;;;;;16.00;5.55;;;;;;;5.46;64.29;100842.94;1779581;79;21074;-55
2022/02/24 01:03:37;;;;;;;6.90;3.83;;;;;;;5.42;64.33;100844.86;1785361;78;21050;-55
2022/02/24 01:06:03;;;;;;;9.08;4.70;;;;;;;5.40;64.43;100850.63;1781640;80;21564;-54
2022/02/24 01:08:30;;;;;;;9.33;4.80;;;;;;;5.38;64.43;100852.00;1800462;77;21094;-54
2022/02/24 01:10:56;;;;;;;10.48;5.33;;;;;;;5.37;64.45;100856.00;1804255;78;21026;-54
2022/02/24 01:13:23;;;;;;;11.15;5.12;;;;;;;5.33;64.54;100863.14;1802507;78;21390;-54
2022/02/24 01:15:49;;;;;;;9.70;4.80;;;;;;;5.31;64.54;100863.69;1766862;80;21626;-54
2022/02/24 01:18:16;;;;;;;7.85;4.75;;;;;;;5.29;64.65;100868.11;1797958;77;21089;-54
2022/02/24 01:20:43;;;;;;;11.73;6.45;;;;;;;5.29;64.68;100865.97;1762064;79;21050;-54
2022/02/24 01:23:09;;;;;;;8.10;5.05;;;;;;;5.33;64.56;100872.27;1763460;79;21069;-54
2022/02/24 01:25:36;;;;;;;14.68;5.37;;;;;;;5.36;64.51;100869.52;1794564;78;21164;-54
2022/02/24 01:28:03;;;;;;;9.13;5.75;;;;;;;5.40;64.56;100872.81;1786352;79;21068;-54
2022/02/24 01:30:29;;;;;;;8.78;5.28;;;;;;;5.45;64.56;100867.36;1785877;79;21025;-54
2022/02/24 01:32:56;;;;;;;8.60;4.58;;;;;;;5.47;64.65;100870.73;1756541;79;20998;-55
2022/02/24 01:35:23;;;;;;;9.20;5.00;;;;;;;5.46;64.66;100870.34;1791874;78;22291;-55
2022/02/24 01:37:50;;;;;;;12.82;5.37;;;;;;;5.47;64.68;100870.73;1790887;79;21144;-54
2022/02/24 01:40:17;;;;;;;10.18;4.80;;;;;;;5.44;64.68;100874.80;1791647;78;21042;-54
2022/02/24 01:42:44;;;;;;;10.85;5.80;;;;;;;5.42;64.77;100867.52;1789068;78;21046;-54
2022/02/24 01:45:11;;;;;;;13.45;5.33;;;;;;;5.40;64.77;100868.89;1789206;79;21584;-54
2022/02/24 01:47:37;;;;;;;10.95;5.35;;;;;;;5.35;64.76;100867.81;1787116;78;21110;-55
2022/02/24 01:50:05;;;;;;;10.18;5.12;;;;;;;5.31;64.93;100873.25;1746571;78;22099;-54
2022/02/24 01:52:33;;;;;;;10.82;5.33;;;;;;;5.27;65.18;100876.48;1745127;80;21097;-54
2022/02/24 01:55:00;;;;;;;8.85;5.22;;;;;;;5.26;65.11;100874.81;1716622;80;21574;-55
2022/02/24 01:57:28;;;;;;;12.68;5.78;;;;;;;5.29;65.14;100876.41;1748312;78;21050;-55
2022/02/24 01:59:55;;;;;;;8.15;4.62;;;;;;;5.34;65.15;100879.16;1776096;78;21123;-54
2022/02/24 02:02:22;;;;;;;9.63;4.40;;;;;;;5.38;65.04;100880.72;1773284;78;21136;-55
2022/02/24 02:04:48;;;;;;;10.20;5.47;;;;;;;5.39;65.14;100881.08;1745064;78;21112;-55
2022/02/24 02:07:15;;;;;;;8.50;5.28;;;;;;;5.40;65.20;100885.39;1780750;79;21140;-54
2022/02/24 02:09:42;;;;;;;10.05;5.22;;;;;;;5.40;65.13;100877.56;1776705;80;21363;-55
2022/02/24 02:12:08;;;;;;;13.68;5.87;;;;;;;5.38;65.04;100882.48;1779695;79;21096;-54
2022/02/24 02:14:38;;;;;;;9.73;5.67;;;;;;;5.34;64.99;100881.77;1783517;79;21845;-54
2022/02/24 02:17:05;;;;;;;8.63;4.80;;;;;;;5.31;64.97;100887.17;1776306;78;21101;-54
2022/02/24 02:19:32;;;;;;;12.55;6.00;;;;;;;5.26;65.01;100889.17;1750220;80;21129;-55
2022/02/24 02:21:59;;;;;;;9.85;4.95;;;;;;;5.21;65.06;100896.34;1772081;79;21750;-54
2022/02/24 02:24:26;;;;;;;9.53;5.42;;;;;;;5.18;65.17;100899.97;1777652;80;21090;-56
2022/02/24 02:26:54;;;;;;;9.65;4.90;;;;;;;5.11;65.20;100897.28;1757535;80;21061;-54
2022/02/24 02:29:20;;;;;;;8.78;4.72;;;;;;;5.07;65.39;100908.77;1785611;79;21045;-54
2022/02/24 02:31:47;;;;;;;9.75;5.65;;;;;;;5.07;65.53;100913.16;1782484;80;21078;-54
2022/02/24 02:34:16;;;;;;;7.70;4.92;;;;;;;5.14;65.54;100915.37;1776440;80;21029;-54
2022/02/24 02:36:45;;;;;;;8.15;4.10;;;;;;;5.20;65.46;100916.38;1749905;80;21544;-54
2022/02/24 02:39:12;;;;;;;9.65;5.45;;;;;;;5.28;65.51;100920.38;1749504;78;21116;-55
2022/02/24 02:41:42;;;;;;;9.40;5.42;;;;;;;5.33;65.40;100924.47;1754625;80;21460;-54
2022/02/24 02:44:11;;;;;;;8.28;5.17;;;;;;;5.35;65.49;100927.00;1757582;80;21086;-54
2022/02/24 02:46:37;;;;;;;11.90;5.33;;;;;;;5.35;65.49;100929.14;1779762;80;21532;-55
2022/02/24 02:49:04;;;;;;;11.03;6.20;;;;;;;5.34;65.38;100939.19;1774619;78;21061;-54
2022/02/24 02:51:31;;;;;;;7.65;4.72;;;;;;;5.34;65.30;100937.05;1782541;80;21188;-54
2022/02/24 02:53:57;;;;;;;13.13;6.05;;;;;;;5.31;65.37;100936.75;1766353;79;21097;-54
2022/02/24 02:56:24;;;;;;;8.18;5.12;;;;;;;5.32;65.35;100942.34;1745319;80;21057;-54
2022/02/24 02:58:50;;;;;;;10.32;5.50;;;;;;;5.30;65.25;100943.34;1767208;79;21043;-54
2022/02/24 03:01:17;;;;;;;11.38;5.35;;;;;;;5.27;65.35;100946.10;1772542;79;21078;-55
2022/02/24 03:03:45;;;;;;;10.60;5.42;;;;;;;5.23;65.37;100946.72;1761686;79;21078;-54
2022/02/24 03:06:11;;;;;;;8.93;5.25;;;;;;;5.20;65.41;100952.08;1762991;79;21062;-54
2022/02/24 03:08:38;;;;;;;8.88;5.53;;;;;;;5.28;65.31;100952.98;1747175;80;21391;-54
2022/02/24 03:11:04;;;;;;;8.13;5.22;;;;;;;5.31;65.33;100948.50;1761443;79;21109;-54
2022/02/24 03:15:54;;;;;;;9.73;5.45;;;;;;;5.45;65.26;100950.41;1841088;76;21936;-54
2022/02/24 03:18:20;;;;;;;9.63;5.65;;;;;;;5.40;65.22;100955.86;1777863;78;21052;-54
2022/02/24 03:20:47;;;;;;;10.13;5.60;;;;;;;5.42;65.26;100962.77;1792395;78;21528;-55
2022/02/24 03:23:13;;;;;;;10.28;5.33;;;;;;;5.39;65.23;100960.68;1799426;78;21012;-54
2022/02/24 03:25:40;;;;;;;9.50;5.62;;;;;;;5.37;65.15;100961.22;1805930;77;21046;-54
2022/02/24 03:28:06;;;;;;;10.60;5.40;;;;;;;5.34;65.20;100965.75;1771348;79;21049;-53
2022/02/24 03:30:34;;;;;;;13.15;5.97;;;;;;;5.31;65.29;100964.59;1800880;78;20966;-54
2022/02/24 03:33:02;;;;;;;14.30;6.20;;;;;;;5.26;65.30;100967.88;1803139;77;21462;-57
2022/02/24 03:35:28;;;;;;;11.33;5.22;;;;;;;5.20;65.36;100972.95;1779159;78;20994;-55
2022/02/24 03:37:55;;;;;;;11.88;5.12;;;;;;;5.16;65.42;100974.86;1802594;78;20914;-53
2022/02/24 03:40:22;;;;;;;12.00;5.90;;;;;;;5.13;65.49;100976.78;1805801;77;20986;-52
2022/02/24 03:42:48;;;;;;;7.97;5.10;;;;;;;5.15;65.50;100976.23;1798939;77;21033;-54
2022/02/24 03:45:15;;;;;;;10.28;4.97;;;;;;;5.22;65.40;100982.84;1806357;78;21743;-54
2022/02/24 03:47:42;;;;;;;11.35;4.90;;;;;;;5.27;65.26;100984.77;1817043;78;21515;-53
2022/02/24 03:50:11;;;;;;;8.35;5.35;;;;;;;5.32;65.38;100977.56;1807037;78;21064;-54
2022/02/24 03:52:38;;;;;;;14.15;6.35;;;;;;;5.35;65.29;100980.50;1788583;78;21461;-54
2022/02/24 03:55:07;;;;;;;9.58;5.80;;;;;;;5.35;65.23;100974.81;1810426;78;21061;-55
2022/02/24 03:57:34;;;;;;;11.25;5.55;;;;;;;5.34;65.27;100980.94;1804776;78;21158;-54
2022/02/24 04:00:00;;;;;;;11.00;5.60;;;;;;;5.34;65.19;100976.19;1803306;78;21208;-53
2022/02/24 04:02:27;;;;;;;10.65;6.20;;;;;;;5.31;65.13;100980.24;1811154;78;21075;-53
2022/02/24 04:04:53;;;;;;;10.38;6.20;;;;;;;5.27;65.07;100978.72;1804228;78;21086;-52
2022/02/24 04:07:20;;;;;;;13.20;5.70;;;;;;;5.20;65.18;100979.00;1803684;78;21120;-53
2022/02/24 04:09:46;;;;;;;9.05;5.80;;;;;;;5.16;65.28;100980.08;1808249;78;21508;-53
2022/02/24 04:12:15;;;;;;;11.43;6.12;;;;;;;5.14;65.54;100981.06;1804987;78;21010;-52
2022/02/24 04:14:42;;;;;;;9.28;5.70;;;;;;;5.16;65.59;100981.39;1778474;79;20979;-55
2022/02/24 04:17:09;;;;;;;14.98;6.35;;;;;;;5.26;65.56;100984.41;1804825;78;21014;-55
2022/02/24 04:19:35;;;;;;;12.40;5.70;;;;;;;5.33;65.61;100982.31;1786339;79;21049;-55
2022/02/24 04:22:03;;;;;;;12.35;6.83;;;;;;;5.37;65.56;100983.41;1792253;78;21192;-55
2022/02/24 04:24:29;;;;;;;12.00;6.72;;;;;;;5.38;65.66;100991.62;1776972;77;20985;-55
2022/02/24 04:26:56;;;;;;;11.60;6.03;;;;;;;5.42;65.92;100992.79;1788523;78;21521;-55
2022/02/24 04:29:22;;;;;;;12.90;7.20;;;;;;;5.46;65.97;100999.54;1793101;79;21034;-54
2022/02/24 04:31:49;;;;;;;13.68;7.30;;;;;;;5.46;65.87;100999.54;1800820;78;20999;-53
2022/02/24 04:34:16;;;;;;;15.58;7.70;;;;;;;5.45;65.94;101006.53;1807203;78;21853;-52
2022/02/24 04:36:42;;;;;;;12.82;7.22;;;;;;;5.40;65.74;101012.44;1793066;78;21069;-52
2022/02/24 04:39:09;;;;;;;12.40;6.37;;;;;;;5.33;65.74;101010.58;1733706;81;21126;-51
2022/02/24 04:41:35;;;;;;;13.22;6.97;;;;;;;5.29;66.03;101026.45;1724574;80;21026;-49
2022/02/24 04:44:02;;;;;;;11.97;7.22;;;;;;;5.25;66.06;101027.53;1694105;82;21553;-51
2022/02/24 04:46:31;;;;;;;15.45;7.15;;;;;;;5.24;66.00;101024.52;1718762;81;21165;-49
2022/02/24 04:48:59;;;;;;;14.93;7.58;;;;;;;5.30;65.96;101033.37;1749152;81;21148;-53
2022/02/24 04:51:26;;;;;;;10.08;6.70;;;;;;;5.38;65.90;101040.38;1720508;81;21165;-52
2022/02/24 04:53:52;;;;;;;11.97;6.60;;;;;;;5.40;65.90;101035.45;1726183;82;21029;-53
2022/02/24 04:56:19;;;;;;;11.10;7.37;;;;;;;5.42;65.99;101038.00;1735878;79;21596;-54
2022/02/24 04:58:45;;;;;;;14.00;8.35;;;;;;;5.43;65.97;101044.92;1712693;81;21098;-54
2022/02/24 05:01:12;;;;;;;18.62;10.75;;;;;;;5.44;65.91;101054.42;1720025;81;21034;-57
2022/02/24 05:03:38;;;;;;;17.32;10.68;;;;;;;5.42;65.93;101052.82;1762522;81;21112;-54
2022/02/24 05:06:05;;;;;;;17.60;10.15;;;;;;;5.39;65.92;101058.55;1738852;81;21047;-54
2022/02/24 05:08:31;;;;;;;21.60;12.35;;;;;;;5.37;65.91;101064.78;1725670;81;21035;-53
2022/02/24 05:10:58;;;;;;;17.42;10.53;;;;;;;5.34;66.00;101069.67;1743988;79;21156;-55
2022/02/24 05:13:25;;;;;;;16.30;10.20;;;;;;;5.31;66.17;101071.58;1714419;82;21078;-52
2022/02/24 05:15:51;;;;;;;17.62;9.03;;;;;;;5.31;66.12;101075.05;1744535;80;21045;-54
2022/02/24 05:18:17;;;;;;;15.40;10.00;;;;;;;5.34;66.05;101079.27;1698896;80;21077;-57
2022/02/24 05:20:45;;;;;;;17.95;10.60;;;;;;;5.38;66.12;101085.59;1742928;81;21533;-54
2022/02/24 05:23:12;;;;;;;20.50;10.40;;;;;;;5.44;66.16;101083.60;1808461;78;21124;-57
2022/02/24 05:25:38;;;;;;;17.00;9.43;;;;;;;5.45;66.16;101086.14;1804913;79;21043;-53
2022/02/24 05:28:10;;;;;;;15.30;8.88;;;;;;;5.44;66.16;101092.27;1799895;78;20985;-52
2022/02/24 05:30:37;;;;;;;12.33;8.85;;;;;;;5.43;66.10;101093.64;1779364;79;21040;-53
2022/02/24 05:33:04;;;;;;;15.35;8.05;;;;;;;5.41;66.08;101102.84;1776294;79;21041;-52
2022/02/24 05:35:31;;;;;;;12.10;8.05;;;;;;;5.40;66.09;101103.78;1800260;78;21090;-53
2022/02/24 05:37:57;;;;;;;14.93;8.23;;;;;;;5.37;66.13;101112.59;1806685;77;21025;-53
2022/02/24 05:40:24;;;;;;;16.25;8.80;;;;;;;5.35;66.13;101113.12;1801230;79;21001;-53
2022/02/24 05:42:51;;;;;;;12.85;7.67;;;;;;;5.31;66.14;101120.73;1808160;78;21563;-53
2022/02/24 05:45:17;;;;;;;12.93;7.08;;;;;;;5.31;66.19;101122.47;1803981;78;21025;-53
2022/02/24 05:47:44;;;;;;;14.75;7.12;;;;;;;5.33;66.11;101124.54;1782956;79;21185;-53
2022/02/24 05:50:10;;;;;;;15.15;7.45;;;;;;;5.38;65.91;101132.56;1807953;78;21096;-53
2022/02/24 05:52:38;;;;;;;11.68;6.20;;;;;;;5.46;65.86;101134.80;1815933;78;20986;-54
2022/02/24 05:55:05;;;;;;;13.35;7.05;;;;;;;5.50;65.83;101138.14;1817191;78;21548;-54
2022/02/24 05:57:31;;;;;;;12.60;6.72;;;;;;;5.50;65.92;101144.66;1807736;78;21069;-53
2022/02/24 05:59:58;;;;;;;14.63;7.65;;;;;;;5.49;66.01;101142.96;1816713;79;22743;-53
2022/02/24 06:05:17;;;;;;;14.10;7.55;;;;;;;5.40;66.36;101147.69;1794988;79;22741;-57
2022/02/24 06:07:44;;;;;;;12.45;7.70;;;;;;;5.39;66.38;101151.20;1749924;80;21627;-53
2022/02/24 06:10:11;;;;;;;17.00;8.83;;;;;;;5.38;66.41;101157.36;1750233;81;21133;-53
2022/02/24 06:12:38;;;;;;;14.55;8.08;;;;;;;5.36;66.29;101160.94;1723504;81;21094;-53
2022/02/24 06:15:06;;;;;;;16.10;9.25;;;;;;;5.32;66.68;101166.77;1748403;80;21053;-54
2022/02/24 06:17:33;;;;;;;14.78;7.53;;;;;;;5.38;66.78;101169.57;1738785;81;21026;-53
2022/02/24 06:19:59;;;;;;;16.75;8.15;;;;;;;5.52;66.45;101175.45;1748726;81;21058;-54
2022/02/24 06:22:25;;;;;;;14.95;8.28;;;;;;;5.59;66.33;101177.69;1743925;81;21115;-54
2022/02/24 06:24:51;;;;;;;13.32;8.33;;;;;;;5.64;66.19;101180.56;1744829;81;21672;-53
2022/02/24 06:27:19;;;;;;;12.37;8.38;;;;;;;5.68;66.13;101186.02;1729835;81;21052;-54
2022/02/24 06:29:46;;;;;;;12.33;7.28;;;;;;;5.70;66.03;101182.44;1753481;81;21102;-54
2022/02/24 06:32:14;;;;;;;16.42;8.13;;;;;;;5.71;65.82;101185.41;1729623;81;21054;-53
2022/02/24 06:34:40;;;;;;;12.82;8.08;;;;;;;5.69;65.66;101189.87;1753191;81;21134;-54
2022/02/24 06:37:07;;;;;;;14.68;7.08;;;;;;;5.63;65.70;101192.78;1750341;80;21557;-54
2022/02/24 06:39:34;;;;;;;14.10;8.63;;;;;;;5.55;65.77;101189.20;1749160;80;21138;-53
2022/02/24 06:42:01;;;;;;;12.68;6.72;;;;;;;5.53;66.03;101198.02;1751832;80;21326;-53
2022/02/24 06:44:27;;;;;;;16.97;8.93;;;;;;;5.61;66.01;101195.06;1754411;81;21061;-54
2022/02/24 06:46:54;;;;;;;14.95;8.83;;;;;;;5.65;66.05;101203.13;1751761;80;21500;-55
2022/02/24 06:49:20;;;;;;;14.23;8.10;;;;;;;5.69;66.11;101202.92;1727245;81;21125;-53
2022/02/24 06:51:47;;;;;;;18.82;8.38;;;;;;;5.72;65.98;101207.17;1751129;80;21039;-53
2022/02/24 06:54:14;;;;;;;13.78;8.60;;;;;;;5.71;66.06;101212.83;1732396;81;21110;-55
2022/02/24 06:56:40;;;;;;;16.02;9.10;;;;;;;5.68;66.02;101213.00;1751040;80;21576;-53
2022/02/24 06:59:06;;;;;;;16.82;9.60;;;;;;;5.68;66.02;101214.74;1752261;80;21127;-54
2022/02/24 07:01:33;;;;;;;13.15;8.98;;;;;;;5.64;66.04;101220.56;1731209;81;21075;-55
2022/02/24 07:04:00;;;;;;;13.62;8.85;;;;;;;5.59;66.06;101223.84;1753205;80;21326;-54
2022/02/24 07:06:26;;;;;;;17.77;9.45;;;;;;;5.55;66.16;101227.53;1771105;80;20995;-54
2022/02/24 07:08:53;;;;;;;14.98;8.75;;;;;;;5.54;66.12;101233.19;1756580;80;21093;-54
2022/02/24 07:11:19;;;;;;;16.67;8.95;;;;;;;5.55;65.93;101228.84;1743592;80;21801;-53
2022/02/24 07:13:46;;;;;;;15.00;8.53;;;;;;;5.55;66.09;101234.06;1732310;81;21117;-54
2022/02/24 07:16:12;;;;;;;15.63;8.95;;;;;;;5.58;66.19;101229.98;1725057;81;21674;-54
2022/02/24 07:18:38;;;;;;;14.33;8.70;;;;;;;5.61;66.38;101233.76;1731917;80;21132;-53
2022/02/24 07:21:05;;;;;;;16.55;9.48;;;;;;;5.66;66.33;101239.61;1743943;81;21573;-54
2022/02/24 07:23:32;;;;;;;14.20;8.83;;;;;;;5.68;66.21;101244.77;1710158;82;21091;-54
2022/02/24 07:25:58;;;;;;;12.93;8.88;;;;;;;5.66;66.18;101238.78;1725190;82;20991;-54
2022/02/24 07:28:24;;;;;;;15.35;9.13;;;;;;;5.67;66.15;101243.09;1746661;80;21525;-53
2022/02/24 07:30:52;;;;;;;14.38;9.43;;;;;;;5.67;66.14;101243.94;1749222;80;21043;-54
2022/02/24 07:33:18;;;;;;;12.35;8.23;;;;;;;5.70;66.05;101248.15;1746231;80;21685;-54
2022/02/24 07:35:45;;;;;;;13.05;8.78;;;;;;;5.71;65.99;101249.39;1737754;81;21206;-54
2022/02/24 07:38:11;;;;;;;16.40;8.70;;;;;;;5.82;65.97;101255.44;1746949;80;21553;-54
2022/02/24 07:40:38;;;;;;;15.00;9.23;;;;;;;5.94;65.67;101260.55;1747827;81;21117;-53
2022/02/24 07:43:04;;;;;;;15.03;8.25;;;;;;;5.97;65.54;101259.14;1746762;80;21550;-54
2022/02/24 07:45:31;;;;;;;17.02;9.58;;;;;;;6.00;65.59;101269.89;1729421;81;21075;-57
2022/02/24 07:47:57;;;;;;;13.53;8.05;;;;;;;6.03;65.66;101271.06;1750508;81;21120;-57
2022/02/24 07:50:24;;;;;;;20.05;9.93;;;;;;;6.05;65.58;101266.61;1747003;80;21629;-57
2022/02/24 07:52:50;;;;;;;13.72;8.83;;;;;;;6.04;65.38;101270.99;1750635;81;21038;-64
2022/02/24 07:55:17;;;;;;;15.78;9.25;;;;;;;6.01;65.53;101269.83;1747389;80;21521;-53
2022/02/24 07:57:43;;;;;;;15.03;8.03;;;;;;;6.03;65.75;101267.98;1751055;80;21188;-53
2022/02/24 08:00:15;;;;;;;15.60;10.20;;;;;;;6.09;65.59;101277.31;1748807;80;22921;-54
2022/02/24 08:02:43;;;;;;;13.30;8.23;;;;;;;6.07;65.33;101277.82;1753575;80;21046;-54
2022/02/24 08:05:10;;;;;;;16.30;9.80;;;;;;;6.05;65.18;101274.00;1718345;82;21101;-54
2022/02/24 08:07:38;;;;;;;15.63;9.48;;;;;;;6.05;65.25;101281.84;1744942;80;21228;-53
2022/02/24 08:10:06;;;;;;;16.35;8.73;;;;;;;6.07;65.33;101286.97;1723101;82;21058;-54
2022/02/24 08:12:39;;;;;;;22.15;9.95;;;;;;;6.06;65.41;101293.13;1732942;80;21124;-56
2022/02/24 08:15:07;;;;;;;16.42;10.32;;;;;;;6.04;65.80;101295.81;1720468;80;21023;-54
2022/02/24 08:17:35;;;;;;;18.35;10.45;;;;;;;6.04;65.78;101296.28;1744231;80;21616;-55
2022/02/24 08:20:05;;;;;;;15.10;9.65;;;;;;;6.04;65.89;101302.81;1729533;80;21105;-54
2022/02/24 08:22:35;;;;;;;17.07;9.80;;;;;;;6.04;66.04;101302.81;1706698;82;21133;-55
2022/02/24 08:25:06;;;;;;;15.65;9.40;;;;;;;6.05;66.13;101306.67;1730610;82;21096;-55
2022/02/24 08:27:37;;;;;;;15.23;8.95;;;;;;;6.04;66.11;101305.43;1714975;80;21151;-52
2022/02/24 08:30:06;;;;;;;11.88;8.20;;;;;;;6.02;66.23;101305.94;1740862;82;21502;-53
2022/02/24 08:32:32;;;;;;;15.23;9.00;;;;;;;6.03;66.36;101305.86;1740777;80;21054;-54
2022/02/24 08:34:58;;;;;;;14.18;8.58;;;;;;;6.12;66.21;101311.98;1744055;82;21043;-54
2022/02/24 08:37:26;;;;;;;19.20;9.28;;;;;;;6.18;66.18;101304.31;1745772;82;21398;-55
2022/02/24 08:39:52;;;;;;;14.58;8.95;;;;;;;6.23;66.21;101306.24;1745905;82;21517;-55
2022/02/24 08:42:21;;;;;;;14.65;9.20;;;;;;;6.22;66.39;101315.46;1744194;80;21090;-55
2022/02/24 08:44:47;;;;;;;19.57;9.38;;;;;;;6.19;66.46;101317.77;1744362;80;21152;-54
2022/02/24 08:47:14;;;;;;;14.53;8.58;;;;;;;6.16;66.46;101311.84;1742408;82;21042;-54
2022/02/24 08:49:40;;;;;;;16.60;9.80;;;;;;;6.10;66.51;101310.34;1740914;80;21123;-54
2022/02/24 08:52:07;;;;;;;19.95;10.08;;;;;;;6.05;66.58;101315.81;1742629;82;21046;-54
2022/02/24 08:54:33;;;;;;;18.50;10.30;;;;;;;6.02;66.64;101317.25;1742443;80;21022;-53
2022/02/24 08:57:01;;;;;;;17.45;9.48;;;;;;;5.98;66.77;101316.98;1740319;82;21058;-53
2022/02/24 08:59:27;;;;;;;13.98;9.10;;;;;;;5.97;66.72;101315.75;1715754;82;21093;-53
2022/02/24 09:01:53;;;;;;;14.65;8.88;;;;;;;6.02;66.53;101317.25;1747951;80;21581;-54
2022/02/24 09:04:20;;;;;;;17.07;10.38;;;;;;;6.05;66.49;101321.47;1750900;80;21753;-53
2022/02/24 09:06:46;;;;;;;18.82;10.78;;;;;;;6.05;66.53;101318.42;1723475;80;21050;-53
2022/02/24 09:09:13;;;;;;;18.90;12.30;;;;;;;6.05;66.67;101315.81;1736682;80;22519;-54
2022/02/24 09:11:40;;;;;;;17.90;11.65;;;;;;;6.08;66.58;101320.87;1749443;80;21019;-53
2022/02/24 09:14:06;;;;;;;18.02;10.23;;;;;;;6.09;66.59;101323.88;1751027;80;21083;-53
2022/02/24 09:16:32;;;;;;;20.10;12.40;;;;;;;6.09;66.60;101330.41;1752078;81;21117;-53
2022/02/24 09:18:59;;;;;;;15.72;10.85;;;;;;;6.06;66.53;101325.33;1748847;80;21119;-55
2022/02/24 09:21:25;;;;;;;18.60;11.65;;;;;;;6.00;66.54;101328.67;1749264;81;21581;-54
2022/02/24 09:23:52;;;;;;;21.12;12.33;;;;;;;6.00;66.63;101325.63;1748715;80;21070;-54
2022/02/24 09:26:18;;;;;;;22.85;12.37;;;;;;;6.06;66.62;101322.71;1709315;83;21059;-54
2022/02/24 09:28:44;;;;;;;22.90;13.10;;;;;;;6.08;66.48;101323.48;1742550;80;21062;-54
2022/02/24 09:31:11;;;;;;;18.85;12.18;;;;;;;6.09;66.80;101321.27;1733905;81;21108;-54
2022/02/24 09:33:37;;;;;;;16.90;11.55;;;;;;;6.16;66.82;101318.38;1731944;81;21066;-54
2022/02/24 09:36:04;;;;;;;25.08;13.38;;;;;;;6.21;66.75;101317.70;1753181;81;21525;-55
2022/02/24 09:38:31;;;;;;;18.65;11.48;;;;;;;6.24;66.77;101323.63;1753661;80;21177;-55
2022/02/24 09:40:58;;;;;;;20.23;12.78;;;;;;;6.27;66.67;101320.88;1726837;81;21587;-54
2022/02/24 09:43:32;;;;;;;18.67;12.07;;;;;;;6.26;66.52;101320.95;1731840;81;21102;-54
2022/02/24 09:46:00;;;;;;;21.15;12.07;;;;;;;6.27;66.62;101325.23;1751784;81;21051;-54
2022/02/24 09:48:29;;;;;;;19.23;12.28;;;;;;;6.30;66.38;101323.80;1750703;80;21059;-54
2022/02/24 09:50:56;;;;;;;17.75;11.57;;;;;;;6.38;66.37;101324.28;1751450;80;21150;-54
2022/02/24 09:53:30;;;;;;;18.30;10.90;;;;;;;6.44;66.27;101321.39;1753967;80;21531;-54
2022/02/24 09:55:54;;;;;;;18.15;10.80;;;;;;;6.49;66.06;101323.31;1750494;81;21078;-54
2022/02/24 09:58:21;;;;;;;15.75;9.93;;;;;;;6.49;66.18;101319.39;1745588;80;21064;-54
2022/02/24 10:00:48;;;;;;;13.78;9.53;;;;;;;6.53;66.12;101327.09;1752363;80;21106;-57
2022/02/24 10:03:36;;;;;;;14.75;9.08;;;;;;;6.51;65.82;101329.31;1755893;80;21125;-54
2022/02/24 10:06:03;;;;;;;11.57;7.45;;;;;;;6.48;65.61;101328.15;1753204;81;20995;-54
2022/02/24 10:08:34;;;;;;;15.95;9.48;;;;;;;6.44;65.64;101329.23;1747026;80;21082;-54
2022/02/24 10:11:03;;;;;;;14.13;8.35;;;;;;;6.41;65.56;101328.06;1744961;81;21026;-54
2022/02/24 10:13:29;;;;;;;13.65;8.70;;;;;;;6.35;65.73;101326.20;1750178;81;21084;-54
2022/02/24 10:16:00;;;;;;;11.78;7.65;;;;;;;6.36;65.87;101327.91;1737176;81;21840;-55
2022/02/24 10:18:30;;;;;;;13.48;9.03;;;;;;;6.47;65.86;101329.09;1748328;80;21058;-54
2022/02/24 10:21:00;;;;;;;15.20;8.93;;;;;;;6.51;65.48;101333.70;1744739;81;21471;-53
2022/02/24 10:23:37;;;;;;;12.53;8.05;;;;;;;6.50;65.57;101335.92;1739546;80;21093;-54
2022/02/24 10:26:08;;;;;;;11.85;7.85;;;;;;;6.52;65.73;101331.46;1753062;81;21544;-54
2022/02/24 10:28:52;;;;;;;12.75;8.58;;;;;;;6.51;65.39;101324.08;1740154;80;21133;-54
2022/02/24 10:31:26;;;;;;;13.65;8.93;;;;;;;6.48;65.41;101320.30;1747237;81;21118;-54
2022/02/24 10:34:10;;;;;;;14.93;8.97;;;;;;;6.47;65.37;101322.99;1747034;80;22175;-54
2022/02/24 10:36:37;;;;;;;14.05;8.83;;;;;;;6.38;65.39;101314.30;1744729;80;21038;-54
2022/02/24 10:39:09;;;;;;;13.48;7.05;;;;;;;6.32;65.49;101315.41;1727740;80;21072;-54
2022/02/24 10:41:44;;;;;;;13.43;8.05;;;;;;;6.31;65.52;101316.35;1735463;81;21098;-54
2022/02/24 10:44:19;;;;;;;13.60;7.75;;;;;;;6.35;65.57;101319.19;1731769;80;21138;-54
2022/02/24 10:47:08;;;;;;;14.35;8.65;;;;;;;6.43;65.82;101320.98;1743383;80;21050;-54
2022/02/24 10:49:38;;;;;;;12.33;8.00;;;;;;;6.54;65.73;101321.80;1747779;80;21050;-54
2022/02/24 10:52:17;;;;;;;12.98;8.35;;;;;;;6.60;65.64;101316.25;1720723;82;21507;-54
2022/02/24 10:54:56;;;;;;;13.18;8.33;;;;;;;6.66;65.52;101317.27;1733873;81;21030;-54
2022/02/24 10:57:25;;;;;;;13.72;8.70;;;;;;;6.71;65.39;101318.36;1749689;80;21051;-58
2022/02/24 10:59:52;;;;;;;13.25;8.65;;;;;;;6.72;65.46;101316.59;1731284;81;21073;-54
2022/02/24 11:02:18;;;;;;;16.42;9.80;;;;;;;6.76;65.42;101311.58;1730330;81;21072;-54
2022/02/24 11:04:45;;;;;;;11.97;8.38;;;;;;;6.74;64.98;101315.60;1749056;80;21028;-55
2022/02/24 11:07:11;;;;;;;17.12;10.28;;;;;;;6.69;65.00;101304.48;1722631;82;21175;-54
2022/02/24 11:09:40;;;;;;;14.28;9.23;;;;;;;6.68;65.07;101311.50;1733912;80;21451;-54
2022/02/24 11:12:09;;;;;;;20.35;8.55;;;;;;;6.73;65.05;101302.13;1722726;80;21113;-54
2022/02/24 11:14:39;;;;;;;14.87;10.15;;;;;;;6.78;65.06;101301.44;1735318;82;21562;-54
2022/02/24 11:17:07;;;;;;;13.58;9.38;;;;;;;6.81;65.11;101305.21;1745052;81;21573;-55
2022/02/24 11:19:36;;;;;;;15.68;9.80;;;;;;;6.82;65.24;101309.50;1734042;80;21124;-55
2022/02/24 11:22:04;;;;;;;14.30;9.13;;;;;;;6.86;65.30;101312.84;1734310;82;21114;-55
2022/02/24 11:24:30;;;;;;;17.52;9.25;;;;;;;6.84;65.14;101317.28;1744155;81;21422;-55
2022/02/24 11:27:25;;;;;;;16.62;10.00;;;;;;;6.80;65.01;101318.37;1738458;81;21063;-55
2022/02/24 11:30:05;;;;;;;13.75;9.73;;;;;;;6.74;65.00;101311.68;1734781;80;21038;-55
2022/02/24 11:32:32;;;;;;;16.90;9.83;;;;;;;6.68;65.18;101317.20;1738224;82;21128;-53
2022/02/24 11:35:10;;;;;;;16.17;8.70;;;;;;;6.64;65.29;101316.95;1737429;80;21087;-53